Time;durP1;ratioP1;P1;durP2;ratioP2;P2;SDS_P1;SDS_P2;PMS_P1;PMS_P2;Temp;Humidity;BMP_temperature;BMP_pressure;BME280_temperature;BME280_humidity;BME280_pressure;Samples;Min_cycle;Max_cycle;Signal;HPM_P1;HPM_P2
2022/08/29 00:02:11;;;;;;;;;;;22.00;86.70;;;;;;5039397;28;19946;-96
2022/08/29 00:04:37;;;;;;;;;;;22.10;86.60;;;;;;5057239;28;19945;-96
2022/08/29 00:07:02;;;;;;;;;;;22.10;86.90;;;;;;5056308;28;20033;-96
2022/08/29 00:09:28;;;;;;;;;;;22.10;87.30;;;;;;5038569;28;19963;-96
2022/08/29 00:11:54;;;;;;;;;;;22.10;87.80;;;;;;5039023;28;19953;-96
2022/08/29 00:14:19;;;;;;;;;;;22.10;87.70;;;;;;5057519;28;20292;-96
2022/08/29 00:16:45;;;;;;;;;;;22.10;87.10;;;;;;5039733;28;19958;-96
2022/08/29 00:19:10;;;;;;;;;;;22.10;87.20;;;;;;5056845;28;20443;-96
2022/08/29 00:21:36;;;;;;;;;;;22.10;87.00;;;;;;5039849;28;19950;-96
2022/08/29 00:24:02;;;;;;;;;;;22.20;87.00;;;;;;5039142;28;19940;-96
2022/08/29 00:26:27;;;;;;;;;;;22.20;87.20;;;;;;5057721;28;20012;-96
2022/08/29 00:28:53;;;;;;;;;;;22.20;87.00;;;;;;5057040;28;20017;-96
2022/08/29 00:31:19;;;;;;;;;;;22.20;87.00;;;;;;5058439;28;19944;-96
2022/08/29 00:33:44;;;;;;;;;;;22.20;87.30;;;;;;5040181;28;19942;-96
2022/08/29 00:36:10;;;;;;;;;;;22.00;87.80;;;;;;5040645;28;19962;-96
2022/08/29 00:38:36;;;;;;;;;;;21.90;88.20;;;;;;5058438;28;19980;-96
2022/08/29 00:41:02;;;;;;;;;;;21.90;88.40;;;;;;5058008;28;19936;-96
2022/08/29 00:43:29;;;;;;;;;;;21.90;88.60;;;;;;5057970;28;20331;-96
2022/08/29 00:45:57;;;;;;;;;;;21.80;88.60;;;;;;5039126;28;19942;-95
2022/08/29 00:48:23;;;;;;;;;;;21.80;88.70;;;;;;5039063;28;20068;-96
2022/08/29 00:50:53;;;;;;;;;;;21.90;88.60;;;;;;5057246;28;20385;-96
2022/08/29 00:53:23;;;;;;;;;;;21.90;88.60;;;;;;5038658;28;19944;-95
2022/08/29 00:55:50;;;;;;;;;;;21.90;88.60;;;;;;5057433;28;19935;-96
2022/08/29 00:58:32;;;;;;;;;;;21.90;88.50;;;;;;5060492;28;19992;-96
2022/08/29 01:00:58;;;;;;;;;;;22.00;88.60;;;;;;5042391;28;19991;-96
2022/08/29 01:03:24;;;;;;;;;;;22.00;88.30;;;;;;5060611;28;19941;-96
2022/08/29 01:05:50;;;;;;;;;;;22.00;88.30;;;;;;5059347;28;19944;-96
2022/08/29 01:08:15;;;;;;;;;;;21.90;88.30;;;;;;5059982;28;19973;-96
2022/08/29 01:13:28;;;;;;;;;;;21.90;88.40;;;;;;5059083;28;20002;-96
2022/08/29 01:15:55;;;;;;;;;;;21.90;88.60;;;;;;5040917;28;19946;-96
2022/08/29 01:18:21;;;;;;;;;;;21.90;88.70;;;;;;5059772;28;19943;-96
2022/08/29 01:21:02;;;;;;;;;;;21.90;88.80;;;;;;5037797;28;19992;-96
2022/08/29 01:23:28;;;;;;;;;;;22.00;89.00;;;;;;5039240;28;19944;-96
2022/08/29 01:25:54;;;;;;;;;;;21.90;89.10;;;;;;5038502;28;20487;-96
2022/08/29 01:28:31;;;;;;;;;;;21.90;89.10;;;;;;5038322;28;20316;-96
2022/08/29 01:30:57;;;;;;;;;;;21.90;89.20;;;;;;5038023;28;19972;-96
2022/08/29 01:33:23;;;;;;;;;;;21.90;89.50;;;;;;5038684;28;20052;-96
2022/08/29 01:35:49;;;;;;;;;;;21.80;89.60;;;;;;5036834;28;20446;-96
2022/08/29 01:38:26;;;;;;;;;;;21.80;89.60;;;;;;5038263;28;20010;-96
2022/08/29 01:40:56;;;;;;;;;;;21.80;89.80;;;;;;5036400;28;19943;-96
2022/08/29 01:43:22;;;;;;;;;;;21.80;89.70;;;;;;5038012;28;20031;-96
2022/08/29 01:45:48;;;;;;;;;;;21.80;89.60;;;;;;5037992;28;19937;-96
2022/08/29 01:48:13;;;;;;;;;;;21.80;89.90;;;;;;5037753;28;20055;-96
2022/08/29 01:50:39;;;;;;;;;;;21.80;89.90;;;;;;5037556;28;20434;-96
2022/08/29 01:53:05;;;;;;;;;;;21.80;89.80;;;;;;5037775;28;20416;-96
2022/08/29 01:55:30;;;;;;;;;;;21.80;89.70;;;;;;5037357;28;20040;-96
2022/08/29 01:57:56;;;;;;;;;;;21.80;89.90;;;;;;5037150;28;19941;-96
2022/08/29 02:00:21;;;;;;;;;;;21.70;90.20;;;;;;5037946;28;19940;-96
2022/08/29 02:02:47;;;;;;;;;;;21.60;90.40;;;;;;5037271;28;19941;-96
2022/08/29 02:05:13;;;;;;;;;;;21.60;90.70;;;;;;5037606;28;19944;-96
2022/08/29 02:07:38;;;;;;;;;;;21.60;90.80;;;;;;5036877;28;19975;-96
2022/08/29 02:10:05;;;;;;;;;;;21.60;90.80;;;;;;5038092;28;20377;-96
2022/08/29 02:12:31;;;;;;;;;;;21.60;90.90;;;;;;5037772;28;20037;-96
2022/08/29 02:14:57;;;;;;;;;;;21.60;90.80;;;;;;5036630;28;20025;-96
2022/08/29 02:17:23;;;;;;;;;;;21.70;90.70;;;;;;5036331;28;19945;-96
2022/08/29 02:19:48;;;;;;;;;;;21.70;90.50;;;;;;5037144;28;19991;-95
2022/08/29 02:22:14;;;;;;;;;;;21.70;90.30;;;;;;5038238;28;19943;-96
2022/08/29 02:24:40;;;;;;;;;;;21.80;90.10;;;;;;5040144;28;19948;-96
2022/08/29 02:27:06;;;;;;;;;;;21.80;89.90;;;;;;5039713;28;20484;-96
2022/08/29 02:29:31;;;;;;;;;;;21.70;89.90;;;;;;5039889;28;19972;-96
2022/08/29 02:31:57;;;;;;;;;;;21.80;89.90;;;;;;5038895;28;19944;-96
2022/08/29 02:34:23;;;;;;;;;;;21.80;89.90;;;;;;5039229;28;19940;-96
2022/08/29 02:36:49;;;;;;;;;;;21.80;89.70;;;;;;5039380;28;19955;-95
2022/08/29 02:39:14;;;;;;;;;;;21.80;89.60;;;;;;5038052;28;20434;-96
2022/08/29 02:41:40;;;;;;;;;;;21.80;89.60;;;;;;5037645;28;19945;-96
2022/08/29 02:44:06;;;;;;;;;;;21.70;89.70;;;;;;5038378;28;20012;-96
2022/08/29 02:46:31;;;;;;;;;;;21.80;89.80;;;;;;5038480;28;20404;-96
2022/08/29 02:48:57;;;;;;;;;;;21.80;89.90;;;;;;5039544;28;19987;-96
2022/08/29 02:51:24;;;;;;;;;;;21.70;90.10;;;;;;5038460;28;19949;-96
2022/08/29 02:53:50;;;;;;;;;;;21.70;90.10;;;;;;5039474;28;20425;-96
2022/08/29 02:56:16;;;;;;;;;;;21.70;90.10;;;;;;5038344;28;19945;-96
2022/08/29 02:58:42;;;;;;;;;;;21.70;90.00;;;;;;5039525;28;20008;-96
2022/08/29 03:01:08;;;;;;;;;;;21.70;89.90;;;;;;5039742;28;20382;-96
2022/08/29 03:03:34;;;;;;;;;;;21.60;90.10;;;;;;5040214;28;19948;-96
2022/08/29 03:06:00;;;;;;;;;;;21.70;90.10;;;;;;5040296;28;19948;-96
2022/08/29 03:08:25;;;;;;;;;;;21.70;90.00;;;;;;5038664;28;19971;-96
2022/08/29 03:10:51;;;;;;;;;;;21.60;90.00;;;;;;5038425;28;19940;-96
2022/08/29 03:13:17;;;;;;;;;;;21.70;90.00;;;;;;5039656;28;19942;-96
2022/08/29 03:15:42;;;;;;;;;;;21.60;89.90;;;;;;5037976;28;19956;-96
2022/08/29 03:18:08;;;;;;;;;;;21.70;89.80;;;;;;5038054;28;19947;-96
2022/08/29 03:20:35;;;;;;;;;;;21.60;89.90;;;;;;5038347;28;20348;-96
2022/08/29 03:23:01;;;;;;;;;;;21.60;89.90;;;;;;5040446;28;19959;-96
2022/08/29 03:25:26;;;;;;;;;;;21.70;89.90;;;;;;5040544;28;20343;-96
2022/08/29 03:27:52;;;;;;;;;;;21.60;90.00;;;;;;5039824;28;19968;-96
2022/08/29 03:30:18;;;;;;;;;;;21.50;90.10;;;;;;5038219;28;19945;-96
2022/08/29 03:32:44;;;;;;;;;;;21.50;90.30;;;;;;5038729;28;19953;-96
2022/08/29 03:35:10;;;;;;;;;;;21.40;90.40;;;;;;5040312;28;20424;-96
2022/08/29 03:37:36;;;;;;;;;;;21.30;90.70;;;;;;5040558;28;19966;-96
2022/08/29 03:40:03;;;;;;;;;;;21.30;90.90;;;;;;5040756;28;20317;-96
2022/08/29 03:42:29;;;;;;;;;;;21.30;90.90;;;;;;5039440;28;19942;-96
2022/08/29 03:44:55;;;;;;;;;;;21.30;91.00;;;;;;5041078;28;19954;-96
2022/08/29 03:47:20;;;;;;;;;;;21.30;90.60;;;;;;5040279;28;19967;-96
2022/08/29 03:49:46;;;;;;;;;;;21.20;90.60;;;;;;5038814;28;19988;-96
2022/08/29 03:52:12;;;;;;;;;;;21.10;90.90;;;;;;5039062;28;20401;-96
2022/08/29 03:54:37;;;;;;;;;;;21.10;91.20;;;;;;5040319;28;20381;-96
2022/08/29 03:57:04;;;;;;;;;;;21.10;91.20;;;;;;5039490;28;19947;-96
2022/08/29 03:59:30;;;;;;;;;;;21.20;91.20;;;;;;5040063;28;19939;-96
2022/08/29 04:01:57;;;;;;;;;;;21.30;91.10;;;;;;5037382;28;19980;-96
2022/08/29 04:07:07;;;;;;;;;;;21.30;90.80;;;;;;5038415;28;19971;-95
2022/08/29 04:09:33;;;;;;;;;;;21.30;90.80;;;;;;5037833;28;20412;-96
2022/08/29 04:11:58;;;;;;;;;;;21.30;90.70;;;;;;5039710;28;20036;-96
2022/08/29 04:14:25;;;;;;;;;;;21.30;90.70;;;;;;5038129;28;19945;-96
2022/08/29 04:16:50;;;;;;;;;;;21.30;90.40;;;;;;5038356;28;19953;-96
2022/08/29 04:19:17;;;;;;;;;;;21.30;90.30;;;;;;5048806;23;19980;-96
2022/08/29 04:21:43;;;;;;;;;;;21.30;90.20;;;;;;5073955;28;19978;-96
2022/08/29 04:24:09;;;;;;;;;;;21.30;90.10;;;;;;5073769;28;19945;-96
2022/08/29 04:26:35;;;;;;;;;;;21.20;90.10;;;;;;5071828;28;20388;-96
2022/08/29 04:29:00;;;;;;;;;;;21.20;90.60;;;;;;5074949;28;19961;-96
2022/08/29 04:31:26;;;;;;;;;;;21.20;90.80;;;;;;5078470;28;19986;-96
2022/08/29 04:33:52;;;;;;;;;;;21.20;90.80;;;;;;5078639;28;20343;-96
2022/08/29 04:36:17;;;;;;;;;;;21.20;90.90;;;;;;5078198;28;20302;-96
2022/08/29 04:38:43;;;;;;;;;;;21.10;91.10;;;;;;5077889;28;19947;-96
2022/08/29 04:41:13;;;;;;;;;;;21.10;91.10;;;;;;5078101;28;19941;-96
2022/08/29 04:43:41;;;;;;;;;;;21.00;91.30;;;;;;5077982;28;19945;-96
2022/08/29 04:46:07;;;;;;;;;;;20.90;91.60;;;;;;5077811;28;19940;-96
2022/08/29 04:48:33;;;;;;;;;;;20.90;91.80;;;;;;5077837;28;19959;-96
2022/08/29 04:51:00;;;;;;;;;;;20.80;92.20;;;;;;5077118;28;19983;-96
2022/08/29 04:53:26;;;;;;;;;;;20.80;92.30;;;;;;5078298;28;20007;-96
2022/08/29 04:56:02;;;;;;;;;;;20.80;92.30;;;;;;5078913;28;19943;-96
2022/08/29 04:58:28;;;;;;;;;;;20.90;92.30;;;;;;5077686;28;19970;-96
2022/08/29 05:00:54;;;;;;;;;;;21.00;92.10;;;;;;5077667;28;19946;-96
2022/08/29 05:03:20;;;;;;;;;;;21.10;92.00;;;;;;5077004;28;19943;-96
2022/08/29 05:05:53;;;;;;;;;;;21.10;91.80;;;;;;5075911;28;19977;-96
2022/08/29 05:08:19;;;;;;;;;;;21.10;91.70;;;;;;5070320;28;19963;-96
2022/08/29 05:10:46;;;;;;;;;;;21.20;91.70;;;;;;5076623;28;20029;-96
2022/08/29 05:13:11;;;;;;;;;;;21.20;91.70;;;;;;5076568;28;19949;-96
2022/08/29 05:15:37;;;;;;;;;;;21.20;91.70;;;;;;5076185;28;19941;-96
2022/08/29 05:18:03;;;;;;;;;;;21.30;91.40;;;;;;5077163;28;19935;-96
2022/08/29 05:20:30;;;;;;;;;;;21.30;91.20;;;;;;5076435;28;20360;-96
2022/08/29 05:22:56;;;;;;;;;;;21.30;91.10;;;;;;5077600;28;20557;-95
2022/08/29 05:25:22;;;;;;;;;;;21.20;91.30;;;;;;5072872;28;20405;-96
2022/08/29 05:27:47;;;;;;;;;;;21.30;91.50;;;;;;5071057;28;19985;-96
2022/08/29 05:30:15;;;;;;;;;;;21.30;91.30;;;;;;5072526;28;19982;-96
2022/08/29 05:32:40;;;;;;;;;;;21.30;91.30;;;;;;5074262;28;20012;-96
2022/08/29 05:35:06;;;;;;;;;;;21.30;91.50;;;;;;5073738;28;19947;-96
2022/08/29 05:37:32;;;;;;;;;;;21.30;91.70;;;;;;5074060;28;19972;-96
2022/08/29 05:39:58;;;;;;;;;;;21.20;91.70;;;;;;5072606;28;19948;-96
2022/08/29 05:42:26;;;;;;;;;;;21.20;91.70;;;;;;5071938;28;19967;-96
2022/08/29 05:44:52;;;;;;;;;;;21.20;91.60;;;;;;5072229;28;19946;-96
2022/08/29 05:47:18;;;;;;;;;;;21.20;91.60;;;;;;5074001;28;19965;-96
2022/08/29 05:49:44;;;;;;;;;;;21.20;91.50;;;;;;5073409;28;19943;-96
2022/08/29 05:52:11;;;;;;;;;;;21.20;91.40;;;;;;5074873;28;20302;-96
2022/08/29 05:54:38;;;;;;;;;;;21.30;91.20;;;;;;5073502;28;20477;-96
2022/08/29 05:57:04;;;;;;;;;;;21.20;90.90;;;;;;5072165;28;19953;-96
2022/08/29 05:59:31;;;;;;;;;;;21.30;90.80;;;;;;5075246;28;20334;-96
2022/08/29 06:01:57;;;;;;;;;;;21.30;90.40;;;;;;5072868;28;19943;-96
2022/08/29 06:04:22;;;;;;;;;;;21.30;89.90;;;;;;5073966;28;19940;-96
2022/08/29 06:06:49;;;;;;;;;;;21.30;89.80;;;;;;5069592;28;19942;-96
2022/08/29 06:09:15;;;;;;;;;;;21.30;89.70;;;;;;5069420;28;19952;-95
2022/08/29 06:11:44;;;;;;;;;;;21.40;89.60;;;;;;5073444;28;19938;-96
2022/08/29 06:14:12;;;;;;;;;;;21.50;89.30;;;;;;5072645;28;19997;-96
2022/08/29 06:16:38;;;;;;;;;;;21.70;88.70;;;;;;5074426;28;20046;-96
2022/08/29 06:19:04;;;;;;;;;;;21.80;88.20;;;;;;5073553;28;19950;-96
2022/08/29 06:21:29;;;;;;;;;;;22.00;87.10;;;;;;5074413;28;19946;-96
2022/08/29 06:23:55;;;;;;;;;;;22.10;87.10;;;;;;5075167;28;20314;-96
2022/08/29 06:26:21;;;;;;;;;;;22.20;86.10;;;;;;5075403;28;20012;-96
2022/08/29 06:28:47;;;;;;;;;;;22.30;86.10;;;;;;5074595;28;20006;-96
2022/08/29 06:31:14;;;;;;;;;;;22.50;85.60;;;;;;5073499;28;20014;-96
2022/08/29 06:33:39;;;;;;;;;;;22.50;84.50;;;;;;5072626;28;19952;-96
2022/08/29 06:36:06;;;;;;;;;;;22.50;83.90;;;;;;5072346;28;20286;-96
2022/08/29 06:38:32;;;;;;;;;;;22.60;83.90;;;;;;5074089;28;20387;-96
2022/08/29 06:41:05;;;;;;;;;;;22.70;84.30;;;;;;5073618;28;20445;-96
2022/08/29 06:43:31;;;;;;;;;;;22.80;84.10;;;;;;5071815;28;19955;-96
2022/08/29 06:45:57;;;;;;;;;;;22.80;83.00;;;;;;5072854;28;19940;-96
2022/08/29 06:48:23;;;;;;;;;;;22.80;82.50;;;;;;5073919;28;20434;-96
2022/08/29 06:50:48;;;;;;;;;;;22.90;81.60;;;;;;5075415;28;20028;-96
2022/08/29 06:53:14;;;;;;;;;;;23.10;81.40;;;;;;5072620;28;19941;-96
2022/08/29 06:55:40;;;;;;;;;;;23.10;81.00;;;;;;5071891;28;19992;-95
2022/08/29 06:58:05;;;;;;;;;;;23.20;80.70;;;;;;5073775;28;19943;-96
2022/08/29 07:00:31;;;;;;;;;;;23.30;80.60;;;;;;5073502;28;20314;-96
2022/08/29 07:02:57;;;;;;;;;;;23.30;80.70;;;;;;5071726;28;19950;-96
2022/08/29 07:05:23;;;;;;;;;;;23.40;80.70;;;;;;5073141;28;19951;-96
2022/08/29 07:07:50;;;;;;;;;;;23.50;79.90;;;;;;5065142;28;19958;-96
2022/08/29 07:10:17;;;;;;;;;;;23.70;79.40;;;;;;5072739;28;19958;-96
2022/08/29 07:12:44;;;;;;;;;;;23.70;79.00;;;;;;5074004;28;20037;-96
2022/08/29 07:15:09;;;;;;;;;;;23.80;78.70;;;;;;5072279;28;19941;-96
2022/08/29 07:17:35;;;;;;;;;;;23.80;78.50;;;;;;5073169;28;19947;-96
2022/08/29 07:20:02;;;;;;;;;;;23.80;78.50;;;;;;5070283;28;19975;-96
2022/08/29 07:22:28;;;;;;;;;;;23.90;78.30;;;;;;5071830;28;19955;-96
2022/08/29 07:24:57;;;;;;;;;;;24.00;78.50;;;;;;5075521;28;20028;-96
2022/08/29 07:27:22;;;;;;;;;;;24.00;77.40;;;;;;5073078;28;19982;-96
2022/08/29 07:29:48;;;;;;;;;;;24.10;77.40;;;;;;5073148;28;20313;-96
2022/08/29 07:32:13;;;;;;;;;;;24.10;77.90;;;;;;5071700;28;19968;-96
2022/08/29 07:34:39;;;;;;;;;;;24.20;77.50;;;;;;5071752;28;20035;-96
2022/08/29 07:37:05;;;;;;;;;;;24.20;77.50;;;;;;5072614;28;19989;-96
2022/08/29 07:39:31;;;;;;;;;;;24.20;77.90;;;;;;5073477;28;19945;-96
2022/08/29 07:41:57;;;;;;;;;;;24.30;78.10;;;;;;5073987;28;19939;-96
2022/08/29 07:44:23;;;;;;;;;;;24.30;77.60;;;;;;5074294;28;20019;-96
2022/08/29 07:46:53;;;;;;;;;;;24.30;77.80;;;;;;5073649;28;19943;-96
2022/08/29 07:49:19;;;;;;;;;;;24.30;77.70;;;;;;5073004;28;20037;-96
2022/08/29 07:51:44;;;;;;;;;;;24.30;77.30;;;;;;5072565;28;20381;-96
2022/08/29 07:54:12;;;;;;;;;;;24.30;77.00;;;;;;5073042;28;20002;-96
2022/08/29 07:56:39;;;;;;;;;;;24.30;77.20;;;;;;5071707;28;19937;-96
2022/08/29 07:59:05;;;;;;;;;;;24.30;77.40;;;;;;5073243;28;20033;-96
2022/08/29 08:01:30;;;;;;;;;;;24.40;77.00;;;;;;5073947;28;19973;-96
2022/08/29 08:03:57;;;;;;;;;;;24.50;76.80;;;;;;5072774;28;19948;-96
2022/08/29 08:06:23;;;;;;;;;;;24.60;76.40;;;;;;5070720;28;19944;-96
2022/08/29 08:08:49;;;;;;;;;;;24.70;76.00;;;;;;5069846;28;19955;-96
2022/08/29 08:11:15;;;;;;;;;;;24.80;75.50;;;;;;5080931;28;20292;-96
2022/08/29 08:13:41;;;;;;;;;;;24.90;74.80;;;;;;5072380;28;19935;-96
2022/08/29 08:16:09;;;;;;;;;;;25.00;74.60;;;;;;5073450;28;19971;-96
2022/08/29 08:18:35;;;;;;;;;;;25.10;74.50;;;;;;5072985;28;19938;-96
2022/08/29 08:21:01;;;;;;;;;;;25.20;74.20;;;;;;5073119;28;19983;-96
2022/08/29 08:23:27;;;;;;;;;;;25.20;74.20;;;;;;5073603;28;19953;-96
2022/08/29 08:25:52;;;;;;;;;;;25.20;74.60;;;;;;5074343;28;19955;-96
2022/08/29 08:28:18;;;;;;;;;;;25.30;74.20;;;;;;5074513;28;19998;-96
2022/08/29 08:30:43;;;;;;;;;;;25.40;74.10;;;;;;5073665;28;20058;-96
2022/08/29 08:33:09;;;;;;;;;;;25.50;74.00;;;;;;5072144;28;19947;-96
2022/08/29 08:35:37;;;;;;;;;;;25.50;73.80;;;;;;5073381;28;19943;-96
2022/08/29 08:41:01;;;;;;;;;;;25.70;73.90;;;;;;5470936;22;19988;-96
2022/08/29 08:43:40;;;;;;;;;;;25.80;73.20;;;;;;5064355;28;19928;-96
2022/08/29 09:01:44;;;;;;;;;;;26.50;70.60;;;;;;5171375;22;19978;-96
2022/08/29 09:04:19;;;;;;;;;;;26.60;70.00;;;;;;5074357;28;19965;-96
2022/08/29 09:06:53;;;;;;;;;;;26.70;70.40;;;;;;5095452;28;19941;-96
2022/08/29 09:21:44;;;;;;;;;;;26.90;70.70;;;;;;5099612;22;26888107;-96
2022/08/29 09:24:14;;;;;;;;;;;27.30;67.20;;;;;;6234705;23;20346;-96
2022/08/29 09:26:40;;;;;;;;;;;27.40;67.70;;;;;;6246230;23;19940;-96
2022/08/29 09:29:08;;;;;;;;;;;27.20;67.70;;;;;;6240948;23;19960;-96
2022/08/29 09:31:34;;;;;;;;;;;27.20;66.50;;;;;;6241066;23;19951;-97
2022/08/29 09:34:03;;;;;;;;;;;27.20;67.10;;;;;;6239608;23;19937;-96
2022/08/29 09:36:38;;;;;;;;;;;27.40;67.90;;;;;;6249546;22;19975;-96
2022/08/29 09:39:13;;;;;;;;;;;27.50;64.80;;;;;;6280075;22;19952;-96
2022/08/29 09:41:39;;;;;;;;;;;27.60;64.50;;;;;;6303039;22;19935;-96
2022/08/29 09:44:05;;;;;;;;;;;27.60;65.70;;;;;;6299791;22;19931;-96
2022/08/29 09:46:31;;;;;;;;;;;27.80;66.50;;;;;;6260576;22;19965;-96
2022/08/29 09:48:56;;;;;;;;;;;27.80;65.80;;;;;;6295307;22;19940;-96
2022/08/29 09:51:23;;;;;;;;;;;27.80;66.60;;;;;;6271097;22;19943;-96
2022/08/29 09:53:50;;;;;;;;;;;27.90;65.20;;;;;;6300497;22;19931;-96
2022/08/29 09:56:22;;;;;;;;;;;27.90;65.60;;;;;;6284280;22;19938;-96
2022/08/29 09:59:04;;;;;;;;;;;28.00;67.10;;;;;;6310938;22;19930;-96
2022/08/29 10:01:31;;;;;;;;;;;27.90;63.50;;;;;;6281300;22;19939;-96
2022/08/29 10:04:05;;;;;;;;;;;27.70;62.90;;;;;;6283102;22;19933;-96
2022/08/29 10:06:40;;;;;;;;;;;27.60;66.30;;;;;;6285851;22;19929;-96
2022/08/29 10:09:14;;;;;;;;;;;27.60;65.70;;;;;;6311328;22;19967;-96
2022/08/29 10:12:08;;;;;;;;;;;27.60;65.30;;;;;;6313564;22;19930;-96
2022/08/29 10:14:45;;;;;;;;;;;27.70;63.60;;;;;;6284915;22;19924;-96
2022/08/29 10:20:12;;;;;;;;;;;28.00;66.70;;;;;;6313217;22;19943;-96
2022/08/29 10:22:43;;;;;;;;;;;28.10;63.80;;;;;;6302844;22;19946;-96
2022/08/29 10:25:20;;;;;;;;;;;28.00;63.70;;;;;;6304479;22;19980;-96
2022/08/29 10:27:57;;;;;;;;;;;28.00;65.00;;;;;;6279369;22;19940;-96
2022/08/29 10:30:34;;;;;;;;;;;28.10;65.10;;;;;;6306520;22;19972;-96
2022/08/29 10:47:44;;;;;;;;;;;28.90;61.50;;;;;;6251278;22;21029;-96
2022/08/29 10:50:24;;;;;;;;;;;29.00;60.80;;;;;;6275064;23;20364;-96
2022/08/29 10:52:55;;;;;;;;;;;29.10;60.10;;;;;;6249086;22;19953;-96
2022/08/29 10:55:27;;;;;;;;;;;29.10;58.30;;;;;;6249245;23;19971;-96
2022/08/29 10:58:00;;;;;;;;;;;28.80;59.00;;;;;;6249431;23;19929;-96
2022/08/29 11:00:51;;;;;;;;;;;29.20;60.60;;;;;;6245842;22;19928;-96
2022/08/29 11:03:48;;;;;;;;;;;29.40;57.40;;;;;;6272453;22;19951;-96
2022/08/29 11:06:31;;;;;;;;;;;29.50;58.30;;;;;;6262091;23;19935;-96
2022/08/29 11:09:08;;;;;;;;;;;29.60;57.40;;;;;;6275800;22;19960;-96
2022/08/29 11:12:11;;;;;;;;;;;29.80;59.60;;;;;;6273971;23;19926;-96
2022/08/29 11:15:01;;;;;;;;;;;29.80;57.40;;;;;;6245654;23;19947;-96
2022/08/29 11:17:49;;;;;;;;;;;30.30;56.80;;;;;;6275711;22;19942;-96
2022/08/29 11:20:55;;;;;;;;;;;30.60;54.20;;;;;;6258858;22;19963;-96
2022/08/29 11:33:51;;;;;;;;;;;31.60;51.90;;;;;;6276332;22;19988;-96
2022/08/29 11:39:05;;;;;;;;;;;31.60;51.60;;;;;;6251961;22;19972;-96
2022/08/29 11:47:23;;;;;;;;;;;30.60;54.70;;;;;;6240437;22;19962;-96
2022/08/29 13:25:15;;;;;;;;;;;36.60;36.70;;;;;;6262240;22;19987;-96
2022/08/29 13:27:41;;;;;;;;;;;35.90;38.70;;;;;;6280075;22;19968;-96
2022/08/29 13:30:09;;;;;;;;;;;36.60;38.00;;;;;;6311290;22;19936;-96
2022/08/29 13:32:41;;;;;;;;;;;36.20;38.10;;;;;;6285666;22;19937;-96
2022/08/29 13:35:14;;;;;;;;;;;37.00;38.30;;;;;;6286590;22;19945;-96
2022/08/29 13:37:42;;;;;;;;;;;37.00;37.10;;;;;;6282914;22;20007;-96
2022/08/29 13:40:27;;;;;;;;;;;37.60;36.00;;;;;;6286291;22;19921;-96
2022/08/29 13:43:26;;;;;;;;;;;38.30;34.20;;;;;;6310146;22;19993;-96
2022/08/29 13:46:12;;;;;;;;;;;38.40;34.70;;;;;;6286985;22;19977;-96
2022/08/29 13:48:38;;;;;;;;;;;38.70;34.20;;;;;;6299039;22;19953;-96
2022/08/29 13:51:08;;;;;;;;;;;39.60;33.60;;;;;;6264889;22;19946;-96
2022/08/29 13:53:34;;;;;;;;;;;39.10;33.30;;;;;;6267286;22;19962;-96
2022/08/29 13:56:03;;;;;;;;;;;38.60;34.10;;;;;;6277887;22;19947;-96
2022/08/29 13:58:34;;;;;;;;;;;38.80;34.10;;;;;;6277472;22;19942;-96
2022/08/29 14:01:07;;;;;;;;;;;38.70;33.90;;;;;;6277598;22;19979;-96
2022/08/29 14:03:40;;;;;;;;;;;39.00;33.40;;;;;;6275869;22;19943;-96
2022/08/29 14:06:12;;;;;;;;;;;39.40;33.40;;;;;;6276325;22;19937;-96
2022/08/29 14:08:40;;;;;;;;;;;40.30;31.80;;;;;;6276358;22;20396;-96
2022/08/29 14:11:06;;;;;;;;;;;40.20;31.70;;;;;;6275292;22;19936;-96
2022/08/29 14:13:36;;;;;;;;;;;38.40;33.80;;;;;;6278791;22;19945;-96
2022/08/29 14:16:04;;;;;;;;;;;37.50;34.90;;;;;;6276509;22;19932;-96
2022/08/29 14:18:31;;;;;;;;;;;37.20;36.40;;;;;;6278808;22;19949;-96
2022/08/29 14:20:57;;;;;;;;;;;37.30;36.10;;;;;;6245114;22;19943;-96
2022/08/29 14:23:25;;;;;;;;;;;37.20;36.80;;;;;;6277650;22;19925;-96
2022/08/29 15:08:45;;;;;;;;;;;38.70;33.00;;;;;;6270961;22;19968;-96
2022/08/29 15:11:12;;;;;;;;;;;39.30;32.20;;;;;;6266302;23;19960;-96
2022/08/29 15:13:40;;;;;;;;;;;39.50;32.60;;;;;;6260826;23;19940;-96
2022/08/29 15:18:51;;;;;;;;;;;39.60;32.20;;;;;;5038877;28;20056;-96
2022/08/29 15:21:17;;;;;;;;;;;40.00;32.20;;;;;;5034874;28;19990;-96
2022/08/29 15:23:43;;;;;;;;;;;39.20;31.10;;;;;;5031627;28;19942;-96
2022/08/29 15:26:09;;;;;;;;;;;38.10;32.60;;;;;;5038824;28;20101;-96
2022/08/29 15:28:34;;;;;;;;;;;37.60;33.70;;;;;;5030121;28;19946;-96
2022/08/29 15:31:00;;;;;;;;;;;37.70;33.10;;;;;;5031552;28;20330;-96
2022/08/29 15:33:25;;;;;;;;;;;37.90;34.20;;;;;;5032978;28;19951;-96
2022/08/29 15:35:51;;;;;;;;;;;37.90;34.60;;;;;;5032416;28;20008;-96
2022/08/29 15:38:16;;;;;;;;;;;37.80;33.90;;;;;;5032543;28;20441;-96
2022/08/29 15:40:42;;;;;;;;;;;38.10;33.40;;;;;;5032775;28;19948;-96
2022/08/29 15:43:08;;;;;;;;;;;38.90;32.70;;;;;;5034319;28;19962;-96
2022/08/29 15:45:33;;;;;;;;;;;38.80;32.40;;;;;;5028306;28;20337;-96
2022/08/29 15:47:59;;;;;;;;;;;38.70;33.50;;;;;;5030918;27;19949;-96
2022/08/29 15:50:26;;;;;;;;;;;38.90;33.30;;;;;;5028670;28;19937;-96
2022/08/29 15:52:51;;;;;;;;;;;37.90;33.60;;;;;;5028204;28;19943;-96
2022/08/29 15:55:17;;;;;;;;;;;37.80;34.70;;;;;;5027474;28;20028;-96
2022/08/29 15:57:42;;;;;;;;;;;38.10;34.20;;;;;;5027951;28;19965;-96
2022/08/29 16:00:10;;;;;;;;;;;38.30;33.30;;;;;;5028841;28;19989;-96
2022/08/29 16:02:35;;;;;;;;;;;38.40;32.60;;;;;;5028838;28;19978;-96
2022/08/29 16:05:01;;;;;;;;;;;38.00;33.00;;;;;;5031335;28;19934;-96
2022/08/29 16:07:28;;;;;;;;;;;37.70;34.00;;;;;;5033013;28;20341;-96
2022/08/29 16:09:53;;;;;;;;;;;37.30;35.60;;;;;;5031198;28;19941;-96
2022/08/29 16:12:20;;;;;;;;;;;36.70;35.90;;;;;;5030386;28;19941;-96
2022/08/29 16:14:46;;;;;;;;;;;36.30;36.10;;;;;;5029628;28;19947;-96
2022/08/29 16:17:12;;;;;;;;;;;36.40;36.80;;;;;;5037345;28;19992;-96
2022/08/29 16:19:40;;;;;;;;;;;36.70;36.60;;;;;;5052411;28;20029;-96
2022/08/29 16:22:06;;;;;;;;;;;37.60;35.80;;;;;;5053296;28;20013;-96
2022/08/29 16:24:31;;;;;;;;;;;38.10;36.30;;;;;;5056256;28;19949;-96
2022/08/29 16:26:58;;;;;;;;;;;37.70;35.70;;;;;;5052986;28;19941;-96
2022/08/29 16:29:24;;;;;;;;;;;37.10;38.20;;;;;;5044024;28;19958;-96
2022/08/29 16:31:50;;;;;;;;;;;36.50;39.90;;;;;;5040784;28;19948;-96
2022/08/29 16:34:16;;;;;;;;;;;36.20;40.70;;;;;;5042387;28;19972;-96
2022/08/29 16:36:42;;;;;;;;;;;36.20;41.00;;;;;;5036332;28;20015;-96
2022/08/29 16:39:08;;;;;;;;;;;35.60;42.60;;;;;;5036456;28;19948;-96
2022/08/29 16:41:33;;;;;;;;;;;34.80;44.10;;;;;;5037929;28;20399;-96
2022/08/29 16:43:59;;;;;;;;;;;34.60;44.50;;;;;;5037480;28;19983;-96
2022/08/29 16:46:26;;;;;;;;;;;34.30;44.80;;;;;;5037696;28;19941;-96
2022/08/29 16:48:51;;;;;;;;;;;34.00;45.60;;;;;;5038346;28;19947;-96
2022/08/29 16:51:18;;;;;;;;;;;33.70;46.20;;;;;;5038411;28;19975;-96
2022/08/29 16:53:44;;;;;;;;;;;33.60;46.90;;;;;;5039404;28;19984;-96
2022/08/29 16:56:12;;;;;;;;;;;33.00;48.20;;;;;;5037442;28;20311;-96
2022/08/29 17:01:23;;;;;;;;;;;32.60;48.90;;;;;;5038235;28;20309;-96
2022/08/29 17:03:48;;;;;;;;;;;32.20;49.60;;;;;;5038474;28;19938;-96
2022/08/29 17:06:14;;;;;;;;;;;32.00;50.40;;;;;;5037750;28;20291;-96
2022/08/29 17:18:29;;;;;;;;;;;30.80;53.70;;;;;;5043232;28;20028;-96
2022/08/29 17:20:58;;;;;;;;;;;30.60;54.00;;;;;;5043946;28;19940;-96
2022/08/29 17:23:28;;;;;;;;;;;30.40;54.60;;;;;;5034964;28;19955;-96
2022/08/29 17:25:54;;;;;;;;;;;30.20;55.50;;;;;;5034745;28;19945;-96
2022/08/29 17:28:19;;;;;;;;;;;29.90;56.30;;;;;;5034324;28;19938;-96
2022/08/29 17:30:46;;;;;;;;;;;29.80;56.50;;;;;;5033152;28;20288;-95
2022/08/29 17:33:13;;;;;;;;;;;29.70;57.30;;;;;;5032842;28;20027;-96
2022/08/29 17:35:38;;;;;;;;;;;29.40;57.70;;;;;;5032309;28;19945;-96
2022/08/29 17:38:04;;;;;;;;;;;29.30;58.00;;;;;;5032220;28;20024;-96
2022/08/29 17:40:29;;;;;;;;;;;29.20;58.10;;;;;;5031448;28;19949;-95
2022/08/29 17:42:55;;;;;;;;;;;29.10;58.60;;;;;;5031087;28;19942;-96
2022/08/29 17:45:20;;;;;;;;;;;29.00;58.90;;;;;;5032429;28;20353;-96
2022/08/29 17:47:46;;;;;;;;;;;28.90;59.10;;;;;;5032722;28;20296;-96
2022/08/29 17:50:11;;;;;;;;;;;28.90;59.30;;;;;;5032349;28;19939;-96
2022/08/29 17:52:38;;;;;;;;;;;28.80;59.70;;;;;;5032660;28;19948;-96
2022/08/29 17:55:04;;;;;;;;;;;28.70;60.00;;;;;;5032539;28;20394;-96
2022/08/29 17:57:31;;;;;;;;;;;28.70;60.10;;;;;;5032461;28;19963;-96
2022/08/29 17:59:57;;;;;;;;;;;28.70;60.20;;;;;;5032086;28;19976;-96
2022/08/29 18:02:23;;;;;;;;;;;28.60;60.50;;;;;;5032667;28;19991;-96
2022/08/29 18:04:48;;;;;;;;;;;28.50;60.80;;;;;;5031971;28;20468;-96
2022/08/29 18:07:14;;;;;;;;;;;28.40;61.00;;;;;;5032589;28;19943;-96